Time;durP1;ratioP1;P1;durP2;ratioP2;P2;SDS_P1;SDS_P2;PMS_P1;PMS_P2;Temp;Humidity;BMP_temperature;BMP_pressure;BME280_temperature;BME280_humidity;BME280_pressure;Samples;Min_cycle;Max_cycle;Signal;HPM_P1;HPM_P2
2023/02/22 00:06:30;;;;;;;19.00;9.63;;;;;;;4.78;100.00;100222.31;20724650;28;20057;-67
2023/02/22 00:16:31;;;;;;;23.13;9.07;;;;;;;4.63;100.00;100225.69;20724721;28;20099;-68
2023/02/22 00:26:33;;;;;;;16.17;8.43;;;;;;;4.59;100.00;100221.34;20723776;28;20463;-68
2023/02/22 00:46:43;;;;;;;15.32;7.72;;;;;;;4.27;100.00;100208.22;20574387;28;20046;-72
2023/02/22 00:56:44;;;;;;;14.10;8.25;;;;;;;4.21;100.00;100198.63;20655796;28;20058;-69
2023/02/22 01:06:46;;;;;;;16.73;8.30;;;;;;;4.08;100.00;100202.88;20654582;28;20463;-71
2023/02/22 01:16:49;;;;;;;14.73;7.47;;;;;;;3.91;100.00;100188.06;20652936;28;20085;-71
2023/02/22 01:26:50;;;;;;;18.67;8.82;;;;;;;3.74;100.00;100188.81;20655122;28;20125;-70
2023/02/22 01:36:52;;;;;;;13.30;7.35;;;;;;;3.61;100.00;100179.19;20651744;28;20423;-70
2023/02/22 01:46:53;;;;;;;15.30;7.65;;;;;;;3.47;100.00;100166.13;20651919;28;20062;-71
2023/02/22 01:56:54;;;;;;;18.08;8.32;;;;;;;3.34;100.00;100149.59;20654180;28;20105;-69
2023/02/22 02:06:55;;;;;;;15.23;8.07;;;;;;;3.33;100.00;100147.88;20650931;28;20462;-70
2023/02/22 02:17:00;;;;;;;16.67;8.35;;;;;;;3.32;100.00;100148.72;20649053;28;20050;-70
2023/02/22 02:27:02;;;;;;;15.50;7.97;;;;;;;3.29;100.00;100130.59;20648615;28;20046;-70
2023/02/22 02:37:03;;;;;;;14.02;7.63;;;;;;;3.15;100.00;100127.00;20647385;28;20514;-69
2023/02/22 02:47:07;;;;;;;14.23;7.95;;;;;;;3.17;100.00;100130.47;20648211;28;20055;-70
2023/02/22 02:57:09;;;;;;;13.65;7.18;;;;;;;3.14;100.00;100122.69;20646556;28;20070;-71
2023/02/22 03:07:10;;;;;;;18.40;8.23;;;;;;;2.96;100.00;100117.31;20645796;28;20042;-72
2023/02/22 03:17:11;;;;;;;14.38;8.10;;;;;;;3.01;100.00;100110.47;20644031;28;20499;-71
2023/02/22 03:27:13;;;;;;;12.85;6.60;;;;;;;2.94;100.00;100111.28;20643489;28;20046;-70
2023/02/22 03:37:14;;;;;;;15.35;8.15;;;;;;;2.87;100.00;100104.28;20642382;28;20050;-70
2023/02/22 03:47:16;;;;;;;15.35;7.00;;;;;;;2.71;100.00;100109.28;20644580;28;20387;-71
2023/02/22 03:57:17;;;;;;;16.48;8.15;;;;;;;2.63;100.00;100110.91;20643363;28;20044;-72
2023/02/22 04:07:18;;;;;;;17.02;8.10;;;;;;;2.52;100.00;100107.34;20646896;28;20098;-72
2023/02/22 04:17:20;;;;;;;14.90;7.43;;;;;;;2.53;100.00;100103.91;20658632;28;20046;-72
2023/02/22 04:27:22;;;;;;;16.88;8.52;;;;;;;2.47;100.00;100098.69;20658160;28;20042;-71
2023/02/22 04:37:23;;;;;;;21.73;11.80;;;;;;;2.45;100.00;100100.38;20659895;28;20047;-72
2023/02/22 04:47:24;;;;;;;14.98;7.60;;;;;;;2.47;100.00;100094.38;20654970;28;20046;-71
2023/02/22 04:57:26;;;;;;;14.98;7.95;;;;;;;2.40;100.00;100096.88;20653643;28;20359;-71
2023/02/22 05:07:27;;;;;;;14.43;8.15;;;;;;;2.33;100.00;100106.25;20653939;28;20054;-72
2023/02/22 05:17:28;;;;;;;17.77;9.18;;;;;;;2.15;100.00;100096.53;20654946;28;20121;-73
2023/02/22 05:27:30;;;;;;;16.50;9.35;;;;;;;2.09;100.00;100106.78;20653124;28;20513;-72
2023/02/22 05:37:31;;;;;;;15.10;8.18;;;;;;;2.09;100.00;100100.75;20650157;28;20474;-72
2023/02/22 05:47:32;;;;;;;17.35;8.82;;;;;;;2.03;100.00;100104.13;20651739;28;20050;-71
2023/02/22 05:57:33;;;;;;;17.60;8.32;;;;;;;1.94;100.00;100094.53;20651079;28;20050;-71
2023/02/22 06:07:35;;;;;;;15.98;8.52;;;;;;;1.94;100.00;100104.00;20650642;28;20049;-71
2023/02/22 06:17:38;;;;;;;17.52;9.77;;;;;;;1.93;100.00;100107.44;20649772;28;20046;-70
2023/02/22 06:27:39;;;;;;;18.77;9.90;;;;;;;1.91;100.00;100109.09;20648482;28;20072;-70
2023/02/22 06:37:40;;;;;;;13.40;8.48;;;;;;;1.92;100.00;100114.31;20667527;23;20025;-67
2023/02/22 06:47:42;;;;;;;18.40;10.10;;;;;;;1.98;100.00;100122.16;20695073;28;20046;-68
2023/02/22 06:57:43;;;;;;;22.13;12.65;;;;;;;2.03;100.00;100140.28;20710606;28;20699;-66
2023/02/22 07:07:44;;;;;;;24.77;11.40;;;;;;;2.08;100.00;100133.47;20706449;28;20186;-66
2023/02/22 07:17:46;;;;;;;27.40;14.48;;;;;;;2.26;100.00;100138.03;20701705;28;20046;-67
2023/02/22 07:27:47;;;;;;;21.52;11.38;;;;;;;2.46;100.00;100146.03;20701013;28;20318;-66
2023/02/22 07:37:48;;;;;;;23.90;13.13;;;;;;;2.82;100.00;100137.84;20708274;28;20746;-66
2023/02/22 07:47:49;;;;;;;28.30;14.00;;;;;;;3.20;100.00;100135.66;20704385;28;20116;-66
2023/02/22 07:57:51;;;;;;;27.10;15.48;;;;;;;3.53;100.00;100132.53;20704147;28;20062;-66
2023/02/22 08:07:52;;;;;;;24.60;14.32;;;;;;;3.95;100.00;100132.84;20698829;28;20060;-66
2023/02/22 08:17:54;;;;;;;27.00;15.30;;;;;;;4.30;100.00;100140.81;20711508;28;20037;-66
2023/02/22 08:27:57;;;;;;;23.35;14.13;;;;;;;4.80;100.00;100132.41;20715325;28;20053;-66
2023/02/22 08:37:58;;;;;;;24.10;13.57;;;;;;;4.99;100.00;100130.75;20695348;28;20054;-66
2023/02/22 08:48:00;;;;;;;22.98;13.63;;;;;;;5.27;100.00;100119.56;20703473;28;20050;-67
2023/02/22 08:58:01;;;;;;;25.92;13.93;;;;;;;5.68;100.00;100123.88;20712296;28;20100;-67
2023/02/22 09:08:03;;;;;;;23.40;13.50;;;;;;;6.13;100.00;100119.53;20712920;28;20410;-67
2023/02/22 09:18:04;;;;;;;20.40;12.07;;;;;;;6.83;100.00;100108.88;20708922;28;20049;-66
2023/02/22 09:28:06;;;;;;;20.95;12.15;;;;;;;7.32;100.00;100108.56;20715957;28;20046;-67
2023/02/22 09:38:07;;;;;;;21.08;11.95;;;;;;;7.66;100.00;100092.66;20713830;28;20042;-67
2023/02/22 09:48:08;;;;;;;20.67;10.88;;;;;;;8.11;100.00;100080.06;20712883;28;20046;-67
2023/02/22 09:58:22;;;;;;;19.83;10.55;;;;;;;8.65;100.00;100073.34;20702931;28;20050;-66
2023/02/22 10:08:23;;;;;;;21.10;10.20;;;;;;;8.93;100.00;100076.47;20714879;28;20440;-65
2023/02/22 10:18:24;;;;;;;19.02;10.55;;;;;;;9.31;100.00;100068.94;20712927;28;20219;-65
2023/02/22 10:28:26;;;;;;;19.15;10.88;;;;;;;9.81;100.00;100067.22;20708744;28;20050;-66
2023/02/22 10:38:27;;;;;;;17.23;10.38;;;;;;;10.12;100.00;100051.81;20702918;28;20116;-66
2023/02/22 10:48:29;;;;;;;17.60;9.45;;;;;;;10.49;100.00;100049.34;20713620;28;20115;-66
2023/02/22 10:58:30;;;;;;;21.35;10.10;;;;;;;10.83;100.00;100046.88;20705625;28;20044;-67
2023/02/22 11:08:34;;;;;;;20.10;10.88;;;;;;;11.26;100.00;100033.63;20703169;28;20380;-66
2023/02/22 11:18:35;;;;;;;18.27;10.50;;;;;;;11.39;100.00;100023.69;20702546;28;20047;-67
2023/02/22 11:28:37;;;;;;;19.48;10.75;;;;;;;11.80;100.00;100009.50;20708495;28;20081;-67
2023/02/22 11:38:38;;;;;;;21.73;10.98;;;;;;;12.12;100.00;99993.78;20703177;28;20049;-67
2023/02/22 11:48:43;;;;;;;19.75;8.77;;;;;;;12.37;95.94;99981.69;20702166;28;20502;-66
2023/02/22 11:58:44;;;;;;;16.65;8.02;;;;;;;12.83;76.42;99972.38;20702379;28;20510;-66
2023/02/22 12:08:45;;;;;;;16.02;7.75;;;;;;;12.99;74.91;99957.88;20705870;28;20054;-67
2023/02/22 12:18:47;;;;;;;17.58;8.05;;;;;;;13.19;73.43;99951.94;20696701;28;20058;-68
2023/02/22 12:28:48;;;;;;;16.08;7.50;;;;;;;13.17;71.62;99945.00;20701098;28;20058;-68
2023/02/22 12:38:50;;;;;;;16.17;8.32;;;;;;;13.19;69.61;99949.31;20718764;28;20054;-67
2023/02/22 12:48:52;;;;;;;15.43;7.88;;;;;;;13.18;71.17;99941.50;20720349;28;20076;-66
2023/02/22 12:58:53;;;;;;;17.88;8.27;;;;;;;13.50;70.84;99941.25;20715842;28;20046;-66
2023/02/22 13:08:54;;;;;;;17.08;8.90;;;;;;;13.44;71.88;99943.25;20706690;28;20096;-66
2023/02/22 13:18:56;;;;;;;17.95;8.73;;;;;;;13.52;72.92;99930.69;20719628;28;20384;-66
2023/02/22 13:28:58;;;;;;;16.40;9.45;;;;;;;13.55;71.28;99926.16;20719644;28;20050;-66
2023/02/22 13:38:59;;;;;;;19.17;10.07;;;;;;;13.30;73.04;99931.44;20710756;28;20486;-66
2023/02/22 13:49:00;;;;;;;19.33;9.70;;;;;;;13.45;74.99;99930.03;20706849;28;20049;-66
2023/02/22 13:59:01;;;;;;;21.75;10.20;;;;;;;13.46;74.02;99921.25;20716823;28;20088;-67
2023/02/22 14:09:03;;;;;;;18.90;10.13;;;;;;;13.34;74.13;99921.66;20709879;28;20050;-67
2023/02/22 14:19:05;;;;;;;20.58;11.15;;;;;;;13.24;74.66;99918.50;20704951;28;20046;-68
2023/02/22 14:29:06;;;;;;;22.35;10.65;;;;;;;13.13;75.42;99911.84;20704588;28;20132;-68
2023/02/22 14:39:08;;;;;;;18.50;9.70;;;;;;;13.08;75.49;99912.03;20712498;28;20161;-68
2023/02/22 14:49:09;;;;;;;16.77;9.38;;;;;;;13.03;79.39;99901.66;20705894;28;20046;-68
2023/02/22 14:59:10;;;;;;;23.88;14.07;;;;;;;13.05;80.60;99899.84;20664510;28;20056;-68
2023/02/22 15:09:13;;;;;;;19.70;11.95;;;;;;;13.00;82.47;99891.25;20701921;28;20107;-68
2023/02/22 15:19:19;;;;;;;19.80;10.75;;;;;;;12.94;83.50;99890.59;20675367;28;20050;-68
2023/02/22 15:29:21;;;;;;;20.38;11.38;;;;;;;12.82;85.60;99903.22;20648276;28;20043;-67
2023/02/22 15:39:28;;;;;;;20.30;11.50;;;;;;;12.76;87.09;99892.06;20644742;28;20050;-68
2023/02/22 15:49:34;;;;;;;20.17;11.77;;;;;;;12.72;89.84;99901.81;20705809;28;20049;-67
2023/02/22 15:59:39;;;;;;;21.38;12.88;;;;;;;12.51;92.87;99892.84;20668934;28;20050;-68
2023/02/22 16:09:40;;;;;;;;;;;;;;;12.45;95.95;99900.91;20692335;28;20052;-68
2023/02/22 16:19:43;;;;;;;26.52;14.88;;;;;;;12.33;100.00;99914.44;20648895;28;19925;-70
2023/02/22 16:29:45;;;;;;;27.95;16.75;;;;;;;12.07;100.00;99915.19;20720645;28;20060;-69
2023/02/22 16:39:48;;;;;;;27.73;17.33;;;;;;;12.01;100.00;99921.50;20684833;28;20054;-69
2023/02/22 16:49:51;;;;;;;29.23;18.13;;;;;;;11.82;100.00;99928.16;20668803;28;20060;-69
2023/02/22 16:59:54;;;;;;;32.28;18.80;;;;;;;11.51;100.00;99938.63;20652183;28;20107;-69
2023/02/22 17:09:57;;;;;;;37.97;20.15;;;;;;;11.43;100.00;99940.59;20715672;28;20392;-70
2023/02/22 17:20:00;;;;;;;34.70;20.48;;;;;;;11.21;100.00;99948.13;20710351;28;20058;-71
2023/02/22 17:30:01;;;;;;;34.33;20.48;;;;;;;11.17;100.00;99960.47;20706649;28;20046;-71
2023/02/22 17:40:03;;;;;;;34.92;20.00;;;;;;;11.02;100.00;99977.44;20706024;28;20384;-69
2023/02/22 17:50:04;;;;;;;35.75;21.98;;;;;;;11.05;100.00;99982.59;20711673;28;20050;-66
2023/02/22 18:00:11;;;;;;;39.28;22.27;;;;;;;10.93;100.00;99982.91;20712797;28;20049;-69
2023/02/22 18:10:12;;;;;;;38.40;22.00;;;;;;;10.86;100.00;99983.94;20704188;28;20050;-68
2023/02/22 18:20:13;;;;;;;42.42;23.88;;;;;;;10.85;100.00;99982.22;20704095;28;20056;-67
2023/02/22 18:30:15;;;;;;;35.35;22.02;;;;;;;10.71;100.00;99979.06;20709068;28;20057;-67
2023/02/22 18:40:17;;;;;;;36.13;22.85;;;;;;;10.68;100.00;99971.25;20705400;28;20537;-67
2023/02/22 18:50:19;;;;;;;43.60;24.23;;;;;;;10.82;100.00;99974.41;20698370;28;20498;-67
2023/02/22 19:00:27;;;;;;;42.03;25.65;;;;;;;10.89;100.00;99973.38;20706325;28;20053;-68
2023/02/22 19:10:28;;;;;;;40.90;24.20;;;;;;;11.00;100.00;99970.50;20708629;28;20407;-68
2023/02/22 19:20:32;;;;;;;39.95;23.35;;;;;;;10.89;100.00;99962.91;20705940;28;20050;-65
2023/02/22 19:30:33;;;;;;;41.40;23.85;;;;;;;10.68;100.00;99971.25;20700479;28;20565;-68
2023/02/22 19:40:34;;;;;;;38.15;23.75;;;;;;;10.46;100.00;99956.06;20702327;28;20783;-66
2023/02/22 19:50:47;;;;;;;40.28;23.67;;;;;;;10.40;100.00;99958.81;20706467;28;20080;-67
2023/02/22 20:00:48;;;;;;;41.47;23.83;;;;;;;10.30;100.00;99969.50;20700576;28;20056;-66
2023/02/22 20:10:49;;;;;;;44.85;25.00;;;;;;;10.24;100.00;99970.50;20699660;28;20080;-67
2023/02/22 20:20:51;;;;;;;51.80;29.63;;;;;;;10.22;100.00;99983.56;20704513;28;20049;-67
2023/02/22 20:30:52;;;;;;;48.75;26.73;;;;;;;10.24;100.00;99986.19;20702682;28;20890;-67
2023/02/22 20:40:53;;;;;;;40.33;24.42;;;;;;;10.20;100.00;99984.50;20691265;28;20062;-67
2023/02/22 20:50:55;;;;;;;43.50;23.08;;;;;;;10.14;100.00;99988.09;20698332;28;20080;-68
2023/02/22 21:00:56;;;;;;;36.45;21.42;;;;;;;10.13;100.00;99986.38;20719815;28;20097;-69
2023/02/22 21:10:57;;;;;;;41.35;23.75;;;;;;;10.10;100.00;99982.97;20711916;28;20061;-69
2023/02/22 21:20:59;;;;;;;43.33;23.60;;;;;;;10.02;100.00;99983.13;20711424;28;20046;-67
2023/02/22 21:31:00;;;;;;;44.25;23.92;;;;;;;9.96;100.00;99986.72;20702498;28;20052;-67
2023/02/22 21:41:02;;;;;;;42.22;23.45;;;;;;;10.01;100.00;99990.13;20704894;28;20045;-67
2023/02/22 21:51:03;;;;;;;37.85;21.20;;;;;;;10.03;100.00;99983.09;20710919;28;20053;-67
2023/02/22 22:01:04;;;;;;;40.78;22.95;;;;;;;10.03;100.00;99990.94;20703102;28;20439;-67
2023/02/22 22:11:08;;;;;;;42.38;22.05;;;;;;;10.05;100.00;99990.91;20708075;28;20046;-67
2023/02/22 22:21:09;;;;;;;38.70;22.35;;;;;;;10.00;100.00;99987.53;20713163;28;20453;-67
2023/02/22 22:31:10;;;;;;;43.47;23.67;;;;;;;9.98;100.00;99982.31;20705685;28;20057;-67
2023/02/22 22:41:12;;;;;;;43.15;22.95;;;;;;;9.89;100.00;99984.25;20699815;28;20143;-68
2023/02/22 22:51:13;;;;;;;43.65;22.65;;;;;;;9.83;100.00;99985.25;20689619;28;20104;-68
2023/02/22 23:01:18;;;;;;;43.03;23.15;;;;;;;9.78;100.00;99981.88;20706055;28;20104;-68
2023/02/22 23:11:19;;;;;;;41.90;23.35;;;;;;;9.73;100.00;99991.56;20703651;28;20057;-68
2023/02/22 23:21:23;;;;;;;41.88;24.00;;;;;;;9.72;100.00;99995.03;20698208;28;20050;-67
2023/02/22 23:31:24;;;;;;;51.15;27.25;;;;;;;9.68;100.00;99985.53;20707977;28;20042;-67
2023/02/22 23:41:28;;;;;;;45.97;24.98;;;;;;;9.61;100.00;99990.00;20706699;28;20042;-68
2023/02/22 23:51:37;;;;;;;51.57;27.83;;;;;;;9.58;100.00;99983.97;20702095;28;20046;-68
